Time;durP1;ratioP1;P1;durP2;ratioP2;P2;SDS_P1;SDS_P2;PMS_P1;PMS_P2;Temp;Humidity;BMP_temperature;BMP_pressure;BME280_temperature;BME280_humidity;BME280_pressure;Samples;Min_cycle;Max_cycle;Signal;HPM_P1;HPM_P2
2022/05/30 00:00:23;;;;;;;7.70;3.40;;;;;;;11.75;100.00;98339.22;4236838;33;20064;-77
2022/05/30 00:03:02;;;;;;;8.20;3.58;;;;;;;11.77;100.00;98337.03;4230572;33;20162;-77
2022/05/30 00:05:30;;;;;;;11.00;4.55;;;;;;;11.87;100.00;98342.41;4240278;33;20042;-76
2022/05/30 00:07:58;;;;;;;11.50;4.20;;;;;;;11.81;100.00;98338.13;4243395;33;20046;-77
2022/05/30 00:10:25;;;;;;;10.68;4.35;;;;;;;11.72;100.00;98329.78;4242190;33;20348;-77
2022/05/30 00:12:52;;;;;;;13.50;4.40;;;;;;;11.75;100.00;98333.81;4241360;33;20058;-77
2022/05/30 00:15:20;;;;;;;8.02;3.72;;;;;;;11.80;100.00;98336.50;4241142;33;20042;-77
2022/05/30 00:17:47;;;;;;;10.20;3.62;;;;;;;11.89;100.00;98340.25;4242398;33;20092;-77
2022/05/30 00:20:14;;;;;;;6.87;3.62;;;;;;;11.87;100.00;98339.72;4241863;33;20058;-77
2022/05/30 00:22:40;;;;;;;7.18;3.58;;;;;;;11.82;100.00;98334.31;4241170;33;20379;-77
2022/05/30 00:25:07;;;;;;;6.45;2.87;;;;;;;11.74;100.00;98341.13;4241062;33;20039;-76
2022/05/30 00:27:34;;;;;;;12.15;4.00;;;;;;;11.62;100.00;98332.50;4240913;33;20059;-75
2022/05/30 00:30:00;;;;;;;8.40;3.10;;;;;;;11.63;100.00;98334.94;4238904;33;20112;-76
2022/05/30 00:32:27;;;;;;;8.98;3.47;;;;;;;11.38;100.00;98297.25;4239269;33;20068;-76
2022/05/30 00:34:53;;;;;;;5.60;2.92;;;;;;;11.66;100.00;98343.53;4241965;33;20077;-78
2022/05/30 00:37:20;;;;;;;7.57;3.37;;;;;;;11.37;100.00;98291.03;4240567;33;20821;-76
2022/05/30 00:39:46;;;;;;;4.55;3.00;;;;;;;11.41;100.00;98307.50;4254017;33;20054;-77
2022/05/30 00:42:18;;;;;;;6.15;2.78;;;;;;;11.45;100.00;98300.44;4241393;33;20056;-76
2022/05/30 00:44:48;;;;;;;11.75;3.85;;;;;;;11.92;100.00;98360.50;4241720;33;20046;-77
2022/05/30 00:47:16;;;;;;;9.75;3.53;;;;;;;11.55;100.00;98295.06;4239605;33;20042;-77
2022/05/30 00:49:45;;;;;;;6.45;3.20;;;;;;;11.41;100.00;98307.50;4247335;33;20058;-77
2022/05/30 00:52:28;;;;;;;4.82;3.22;;;;;;;11.45;100.00;98297.75;4241582;33;20057;-77
2022/05/30 00:55:00;;;;;;;9.57;4.00;;;;;;;11.94;100.00;98334.06;4214732;33;20094;-77
2022/05/30 00:57:29;;;;;;;4.18;3.10;;;;;;;11.72;100.00;98293.91;4243958;33;20131;-77
2022/05/30 00:59:59;;;;;;;6.03;3.17;;;;;;;11.90;100.00;98335.66;4239664;33;20091;-77
2022/05/30 01:02:30;;;;;;;4.68;2.72;;;;;;;11.83;100.00;98322.47;4254883;33;20069;-77
2022/05/30 01:07:44;;;;;;;10.98;4.15;;;;;;;11.46;100.00;98288.59;4239757;33;20042;-76
2022/05/30 01:10:16;;;;;;;5.70;3.10;;;;;;;11.54;100.00;98312.31;4226874;33;20085;-77
2022/05/30 01:12:49;;;;;;;5.62;2.90;;;;;;;11.53;100.00;98326.84;4232365;33;20060;-78
2022/05/30 01:15:19;;;;;;;5.60;3.47;;;;;;;11.79;100.00;98330.31;4255031;33;20069;-77
2022/05/30 01:17:58;;;;;;;7.18;3.28;;;;;;;11.88;100.00;98333.22;4253953;33;20042;-77
2022/05/30 01:20:52;;;;;;;5.15;3.00;;;;;;;11.87;100.00;98315.44;4252879;33;20064;-77
2022/05/30 01:23:43;;;;;;;4.30;2.47;;;;;;;11.51;100.00;98250.03;4234326;33;20047;-77
2022/05/30 01:26:30;;;;;;;11.82;3.12;;;;;;;12.05;100.00;98326.75;4247274;33;20046;-76
2022/05/30 01:29:16;;;;;;;7.43;3.03;;;;;;;11.74;100.00;98272.88;4227274;33;20057;-77
2022/05/30 01:31:44;;;;;;;4.32;2.55;;;;;;;12.12;100.00;98321.84;4239230;33;20060;-76
2022/05/30 01:34:10;;;;;;;4.87;2.40;;;;;;;12.03;100.00;98315.41;4228094;33;20325;-77
2022/05/30 01:36:37;;;;;;;14.45;3.87;;;;;;;11.94;100.00;98312.47;4239179;33;20053;-77
2022/05/30 01:39:05;;;;;;;5.00;2.58;;;;;;;11.93;100.00;98306.25;4238875;33;20081;-77
2022/05/30 01:41:32;;;;;;;3.80;2.80;;;;;;;11.96;100.00;98313.00;4239745;33;20057;-76
2022/05/30 01:43:59;;;;;;;5.53;3.15;;;;;;;11.99;100.00;98310.56;4254781;33;20413;-77
2022/05/30 01:46:26;;;;;;;9.20;3.55;;;;;;;11.97;100.00;98309.22;4247940;33;20099;-77
2022/05/30 01:48:53;;;;;;;9.45;2.80;;;;;;;11.85;100.00;98306.81;4238645;33;20030;-77
2022/05/30 01:51:21;;;;;;;6.00;2.80;;;;;;;11.79;100.00;98314.13;4254471;33;20079;-76
2022/05/30 01:53:50;;;;;;;3.47;2.72;;;;;;;11.41;100.00;98264.34;4243933;33;20042;-77
2022/05/30 01:56:20;;;;;;;4.55;2.90;;;;;;;11.32;100.00;98249.81;4227905;33;20042;-77
2022/05/30 01:58:47;;;;;;;4.90;2.75;;;;;;;11.58;100.00;98297.22;4245594;33;20111;-77
2022/05/30 02:01:23;;;;;;;4.18;2.70;;;;;;;11.58;100.00;98302.59;4241657;33;20123;-76
2022/05/30 02:03:51;;;;;;;5.20;2.92;;;;;;;11.56;100.00;98288.56;4254601;33;20080;-75
2022/05/30 02:06:20;;;;;;;11.52;3.28;;;;;;;11.45;100.00;98293.19;4253986;33;20448;-76
2022/05/30 02:08:48;;;;;;;8.88;3.10;;;;;;;11.38;100.00;98289.97;4252422;33;20074;-77
2022/05/30 02:11:17;;;;;;;4.53;2.95;;;;;;;11.19;100.00;98248.50;4253292;33;20099;-76
2022/05/30 02:13:44;;;;;;;6.87;3.22;;;;;;;11.32;100.00;98266.00;4253612;33;20080;-76
2022/05/30 02:18:59;;;;;;;10.98;2.85;;;;;;;11.36;100.00;98280.53;4251262;33;20480;-75
2022/05/30 02:21:26;;;;;;;5.78;3.08;;;;;;;11.12;100.00;98281.13;4254129;33;20038;-76
2022/05/30 02:23:53;;;;;;;3.33;2.83;;;;;;;11.00;100.00;98269.81;4252581;33;20095;-77
2022/05/30 02:26:20;;;;;;;5.15;3.05;;;;;;;11.30;100.00;98287.81;4253292;33;20038;-77
2022/05/30 02:28:46;;;;;;;6.15;2.90;;;;;;;11.33;100.00;98286.47;4251974;33;20074;-77
2022/05/30 02:31:12;;;;;;;10.48;4.12;;;;;;;11.44;100.00;98290.78;4241191;33;20430;-77
2022/05/30 02:36:39;;;;;;;6.50;3.60;;;;;;;11.15;100.00;98282.44;4246676;33;20076;-77
2022/05/30 02:39:16;;;;;;;9.68;3.92;;;;;;;11.36;100.00;98277.81;4239686;33;20398;-76
2022/05/30 02:41:46;;;;;;;7.87;3.83;;;;;;;11.29;100.00;98282.72;4238480;33;20404;-77
2022/05/30 02:44:14;;;;;;;5.10;3.53;;;;;;;11.15;100.00;98277.87;4239302;33;20058;-76
2022/05/30 02:46:41;;;;;;;7.62;3.62;;;;;;;11.14;100.00;98275.47;4247862;33;20068;-76
2022/05/30 02:49:08;;;;;;;10.02;3.47;;;;;;;11.13;100.00;98280.03;4241101;33;20046;-76
2022/05/30 02:51:35;;;;;;;9.63;3.55;;;;;;;11.08;100.00;98277.34;4253647;33;20041;-77
2022/05/30 02:54:01;;;;;;;6.70;3.35;;;;;;;10.97;100.00;98273.03;4251330;33;20042;-77
2022/05/30 02:56:30;;;;;;;9.40;4.25;;;;;;;10.99;100.00;98268.19;4253049;33;20463;-76
2022/05/30 02:58:59;;;;;;;20.35;5.07;;;;;;;11.06;100.00;98277.63;4252658;33;20220;-76
2022/05/30 03:01:26;;;;;;;12.63;5.35;;;;;;;10.85;100.00;98276.81;4251654;33;20053;-77
2022/05/30 03:03:53;;;;;;;9.55;4.28;;;;;;;10.76;100.00;98274.94;4254198;33;20068;-76
2022/05/30 03:06:20;;;;;;;9.70;4.70;;;;;;;10.67;100.00;98261.19;4256720;33;20045;-76
2022/05/30 03:08:46;;;;;;;9.57;5.12;;;;;;;10.73;100.00;98270.91;4247475;33;20031;-76
2022/05/30 03:11:15;;;;;;;9.32;4.55;;;;;;;10.84;100.00;98272.50;4242681;33;20419;-76
2022/05/30 03:13:42;;;;;;;7.80;4.18;;;;;;;10.73;100.00;98268.19;4240334;33;20059;-76
2022/05/30 03:16:10;;;;;;;9.52;4.15;;;;;;;10.51;100.00;98226.22;4241559;33;20055;-76
2022/05/30 03:18:37;;;;;;;14.15;4.35;;;;;;;10.72;100.00;98274.66;4250340;33;20085;-77
2022/05/30 03:21:05;;;;;;;10.23;4.90;;;;;;;10.76;100.00;98227.28;4243625;33;20385;-77
2022/05/30 03:23:32;;;;;;;7.78;3.92;;;;;;;10.47;100.00;98217.06;4241983;33;20121;-78
2022/05/30 03:26:00;;;;;;;13.00;4.60;;;;;;;10.89;100.00;98253.66;4254563;33;20056;-77
2022/05/30 03:28:28;;;;;;;8.23;4.40;;;;;;;10.58;100.00;98242.09;4244891;33;20076;-77
2022/05/30 03:30:55;;;;;;;13.32;4.50;;;;;;;10.86;100.00;98259.56;4231136;33;20046;-77
2022/05/30 03:33:29;;;;;;;9.77;4.75;;;;;;;10.98;100.00;98255.81;4247357;33;20047;-77
2022/05/30 03:35:56;;;;;;;15.20;4.32;;;;;;;10.80;100.00;98266.06;4240922;33;20380;-77
2022/05/30 03:38:24;;;;;;;9.18;3.55;;;;;;;10.60;100.00;98220.28;4243608;33;20451;-76
2022/05/30 03:40:54;;;;;;;7.43;4.57;;;;;;;11.01;100.00;98255.25;4251916;33;20043;-76
2022/05/30 03:43:25;;;;;;;4.75;3.30;;;;;;;10.80;100.00;98228.38;4251194;33;20438;-77
2022/05/30 03:45:52;;;;;;;5.80;5.05;;;;;;;10.84;100.00;98224.03;4253353;33;20068;-78
2022/05/30 03:48:21;;;;;;;9.93;4.95;;;;;;;11.09;100.00;98273.59;4243213;33;20081;-76
2022/05/30 03:50:49;;;;;;;6.47;3.85;;;;;;;11.25;100.00;98266.28;4254902;33;20088;-76
2022/05/30 03:53:16;;;;;;;9.35;4.68;;;;;;;11.32;100.00;98260.59;4247084;33;20401;-75
2022/05/30 03:55:45;;;;;;;7.43;4.53;;;;;;;11.32;100.00;98266.78;4240261;33;20065;-77
2022/05/30 03:58:13;;;;;;;12.25;6.32;;;;;;;11.06;100.00;98226.44;4254555;33;20088;-76
2022/05/30 04:00:41;;;;;;;6.15;4.30;;;;;;;11.14;100.00;98219.69;4243423;33;20073;-75
2022/05/30 04:03:09;;;;;;;7.30;4.28;;;;;;;11.23;100.00;98225.31;4255280;33;20038;-77
2022/05/30 04:05:36;;;;;;;7.78;4.43;;;;;;;11.27;100.00;98267.59;4254244;33;20026;-77
2022/05/30 04:08:02;;;;;;;6.95;4.55;;;;;;;11.38;100.00;98256.81;4253254;33;20056;-77
2022/05/30 04:10:31;;;;;;;7.07;4.25;;;;;;;11.32;100.00;98250.63;4254851;33;20091;-77
2022/05/30 04:13:06;;;;;;;11.57;4.25;;;;;;;11.31;100.00;98259.78;4254767;33;20052;-76
2022/05/30 04:15:37;;;;;;;5.75;3.90;;;;;;;11.55;100.00;98264.56;4252966;33;20482;-77
2022/05/30 04:18:06;;;;;;;6.30;4.40;;;;;;;11.22;100.00;98224.50;4247415;33;20101;-77
2022/05/30 04:20:34;;;;;;;6.53;3.92;;;;;;;11.70;100.00;98266.44;4254117;33;20052;-77
2022/05/30 04:23:02;;;;;;;8.95;3.75;;;;;;;11.37;100.00;98242.50;4254803;33;20051;-78
2022/05/30 04:25:30;;;;;;;8.70;4.00;;;;;;;11.48;100.00;98253.28;4228181;33;20068;-76
2022/05/30 04:27:56;;;;;;;12.98;4.20;;;;;;;11.52;100.00;98265.94;4226844;33;20068;-78
2022/05/30 04:30:23;;;;;;;7.03;4.30;;;;;;;11.18;100.00;98255.75;4240332;33;20072;-78
2022/05/30 04:32:50;;;;;;;6.95;3.47;;;;;;;11.16;100.00;98235.56;4241666;33;20038;-76
2022/05/30 04:35:18;;;;;;;7.43;4.28;;;;;;;10.88;100.00;98219.72;4252743;33;20380;-77
2022/05/30 04:37:50;;;;;;;12.90;3.90;;;;;;;11.20;100.00;98261.72;4253997;33;20076;-77
2022/05/30 04:40:19;;;;;;;10.77;4.00;;;;;;;11.31;100.00;98254.38;4240636;33;20105;-79
2022/05/30 04:43:02;;;;;;;9.77;4.82;;;;;;;11.51;100.00;98258.94;4250409;33;20079;-79
2022/05/30 04:45:33;;;;;;;9.27;4.30;;;;;;;11.58;100.00;98254.06;4240078;33;20060;-77
2022/05/30 04:48:01;;;;;;;9.15;4.93;;;;;;;11.37;100.00;98220.16;4240387;33;20360;-80
2022/05/30 04:50:27;;;;;;;8.85;3.95;;;;;;;11.75;100.00;98258.31;4240660;33;20158;-80
2022/05/30 04:52:54;;;;;;;5.70;4.07;;;;;;;11.12;100.00;98205.69;4255439;33;20346;-81
2022/05/30 04:55:23;;;;;;;6.60;3.83;;;;;;;11.51;100.00;98258.13;4250436;33;20064;-81
2022/05/30 04:57:52;;;;;;;13.10;3.55;;;;;;;11.32;100.00;98249.81;4242569;33;20046;-78
2022/05/30 05:00:24;;;;;;;16.83;3.95;;;;;;;11.39;100.00;98250.31;4240722;33;20114;-80
2022/05/30 05:02:54;;;;;;;7.75;3.92;;;;;;;11.23;100.00;98231.53;4241761;33;20096;-80
2022/05/30 05:05:22;;;;;;;10.77;4.00;;;;;;;11.32;100.00;98206.69;4241148;33;20050;-80
2022/05/30 05:07:58;;;;;;;8.23;3.90;;;;;;;11.60;100.00;98251.91;4248311;33;20422;-82
2022/05/30 05:10:41;;;;;;;7.43;3.35;;;;;;;11.81;100.00;98257.22;4241516;33;20127;-81
2022/05/30 05:13:09;;;;;;;8.57;4.68;;;;;;;11.62;100.00;98205.78;4226719;33;20054;-80
2022/05/30 05:15:39;;;;;;;12.37;3.60;;;;;;;11.90;100.00;98250.16;4242729;33;20056;-81
2022/05/30 05:18:06;;;;;;;8.35;4.22;;;;;;;11.77;100.00;98250.75;4254178;33;20034;-80
2022/05/30 05:20:39;;;;;;;11.35;3.53;;;;;;;11.78;100.00;98246.97;4248109;33;20127;-80
2022/05/30 05:23:06;;;;;;;8.60;3.67;;;;;;;12.04;100.00;98233.37;4244118;33;20100;-81
2022/05/30 05:25:46;;;;;;;8.23;3.25;;;;;;;12.11;100.00;98241.97;4252678;33;20030;-81
2022/05/30 05:28:32;;;;;;;7.25;3.20;;;;;;;12.16;100.00;98223.84;4214797;33;20471;-81
2022/05/30 05:31:03;;;;;;;7.30;3.42;;;;;;;12.05;100.00;98218.81;4242899;33;20089;-78
2022/05/30 05:33:36;;;;;;;5.30;3.08;;;;;;;12.17;100.00;98238.16;4251735;33;20046;-81
2022/05/30 05:36:03;;;;;;;3.28;2.35;;;;;;;12.43;100.00;98240.69;4232233;33;20052;-78
2022/05/30 05:38:30;;;;;;;9.23;2.67;;;;;;;12.57;100.00;98243.56;4251146;33;20054;-78
2022/05/30 05:40:58;;;;;;;6.55;2.42;;;;;;;12.42;100.00;98233.69;4245511;33;20181;-80
2022/05/30 05:43:27;;;;;;;3.42;2.17;;;;;;;12.22;100.00;98194.97;4254125;33;20223;-82
2022/05/30 05:45:54;;;;;;;6.75;2.50;;;;;;;12.42;100.00;98231.78;4252154;33;20112;-83
2022/05/30 05:48:20;;;;;;;5.57;2.45;;;;;;;12.62;100.00;98227.31;4250964;33;20057;-83
2022/05/30 05:50:47;;;;;;;9.02;2.45;;;;;;;12.46;100.00;98181.53;4238662;33;20056;-81
2022/05/30 05:53:14;;;;;;;4.87;2.60;;;;;;;12.71;100.00;98220.22;4232226;33;20066;-82
2022/05/30 05:55:43;;;;;;;4.57;2.45;;;;;;;12.94;100.00;98232.19;4236807;33;20054;-81
2022/05/30 05:58:10;;;;;;;9.07;2.67;;;;;;;13.11;100.00;98233.63;4239116;33;20050;-81
2022/05/30 06:00:37;;;;;;;2.42;2.03;;;;;;;13.23;100.00;98236.75;4238306;33;20207;-81
2022/05/30 06:03:04;;;;;;;5.85;2.78;;;;;;;13.28;100.00;98231.28;4240894;33;20046;-80
2022/05/30 06:05:41;;;;;;;8.45;2.80;;;;;;;12.96;100.00;98186.75;4251786;33;20038;-79
2022/05/30 06:08:12;;;;;;;6.85;2.47;;;;;;;13.07;100.00;98188.25;4250550;33;20058;-80
2022/05/30 06:13:27;;;;;;;12.65;2.78;;;;;;;13.19;100.00;98176.25;4254448;33;20056;-81
2022/05/30 06:15:54;;;;;;;10.90;2.20;;;;;;;13.21;100.00;98179.44;4253147;33;20042;-82
2022/05/30 06:18:21;;;;;;;8.48;2.70;;;;;;;13.59;100.00;98222.84;4256405;33;20056;-80
2022/05/30 06:20:49;;;;;;;7.62;4.25;;;;;;;13.70;100.00;98232.44;4254370;33;20049;-81
2022/05/30 06:23:15;;;;;;;7.37;3.67;;;;;;;13.77;100.00;98222.09;4232135;33;20368;-81
2022/05/30 06:25:45;;;;;;;5.20;2.22;;;;;;;13.54;100.00;98179.66;4251180;33;20076;-82
2022/05/30 06:28:15;;;;;;;3.35;2.10;;;;;;;13.70;100.00;98208.09;4255833;33;20047;-81
2022/05/30 06:30:42;;;;;;;5.85;1.48;;;;;;;13.78;100.00;98229.09;4255923;33;20068;-81
2022/05/30 06:33:09;;;;;;;11.02;1.62;;;;;;;13.76;100.00;98220.47;4255738;33;20034;-81
2022/05/30 06:35:42;;;;;;;8.52;1.55;;;;;;;13.70;100.00;98191.88;4255914;33;20083;-81
2022/05/30 06:38:09;;;;;;;4.45;1.73;;;;;;;13.83;100.00;98224.72;4256161;33;20071;-79
2022/05/30 06:40:37;;;;;;;4.30;2.28;;;;;;;13.53;100.00;98186.13;4255992;33;20038;-80
2022/05/30 06:43:04;;;;;;;8.38;1.95;;;;;;;13.53;100.00;98191.53;4256382;33;20425;-79
2022/05/30 06:45:36;;;;;;;;;;;;;;;13.88;100.00;98224.66;4258141;33;20093;-80
2022/05/30 06:48:12;;;;;;;4.47;1.67;;;;;;;13.89;100.00;98226.28;4255942;33;19961;-80
2022/05/30 06:50:39;;;;;;;5.40;2.37;;;;;;;13.38;100.00;98169.00;4255912;33;20417;-81
2022/05/30 06:53:06;;;;;;;8.38;1.90;;;;;;;13.61;100.00;98212.56;4254934;33;20042;-80
2022/05/30 06:55:33;;;;;;;8.13;1.90;;;;;;;13.66;100.00;98217.91;4251568;33;20051;-79
2022/05/30 06:58:12;;;;;;;3.10;1.80;;;;;;;13.60;100.00;98236.09;4254054;33;20068;-77
2022/05/30 07:00:40;;;;;;;6.32;2.80;;;;;;;13.35;100.00;98169.59;4253152;33;20042;-81
2022/05/30 07:03:08;;;;;;;3.55;1.62;;;;;;;13.57;100.00;98225.06;4253556;33;20034;-80
2022/05/30 07:05:36;;;;;;;5.28;1.50;;;;;;;13.31;100.00;98190.16;4252575;33;20045;-81
2022/05/30 07:08:06;;;;;;;5.03;1.83;;;;;;;13.27;100.00;98189.13;4250925;33;20240;-80
2022/05/30 07:10:35;;;;;;;11.90;1.98;;;;;;;13.58;100.00;98221.25;4247100;33;20050;-82
2022/05/30 07:13:03;;;;;;;7.93;2.47;;;;;;;13.40;100.00;98220.91;4245689;33;20039;-83
2022/05/30 07:15:34;;;;;;;9.55;2.00;;;;;;;13.51;100.00;98226.19;4230872;33;20216;-83
2022/05/30 07:18:10;;;;;;;2.45;1.60;;;;;;;13.51;100.00;98231.59;4245299;33;20039;-81
2022/05/30 07:20:37;;;;;;;2.92;1.65;;;;;;;13.71;100.00;98228.66;4248485;33;20172;-80
2022/05/30 07:23:10;;;;;;;;;;;;;;;13.38;100.00;98179.81;4251271;33;20338;-81
2022/05/30 07:25:41;;;;;;;5.75;1.73;;;;;;;13.71;100.00;98231.38;4240172;33;19959;-80
2022/05/30 07:28:12;;;;;;;8.48;2.22;;;;;;;13.81;100.00;98225.81;4252582;33;20113;-81
2022/05/30 07:30:45;;;;;;;2.28;1.73;;;;;;;13.81;100.00;98217.69;4251499;33;20045;-83
2022/05/30 07:33:28;;;;;;;6.25;2.17;;;;;;;13.31;100.00;98156.94;4252506;33;20034;-80
2022/05/30 07:36:16;;;;;;;6.35;2.08;;;;;;;13.51;100.00;98193.75;4256967;33;20046;-80
2022/05/30 07:38:43;;;;;;;3.08;1.37;;;;;;;13.77;100.00;98235.63;4237834;33;20064;-80
2022/05/30 07:41:11;;;;;;;6.43;1.80;;;;;;;13.50;100.00;98186.72;4239961;33;20097;-79
2022/05/30 07:43:37;;;;;;;5.03;2.35;;;;;;;13.69;100.00;98238.97;4252231;33;20099;-80
2022/05/30 07:46:10;;;;;;;4.65;2.25;;;;;;;13.49;100.00;98190.53;4238946;33;20052;-79
2022/05/30 07:48:38;;;;;;;3.78;1.70;;;;;;;13.86;100.00;98224.16;4239346;33;20149;-77
2022/05/30 07:51:07;;;;;;;9.05;3.08;;;;;;;13.80;100.00;98234.22;4240666;33;20370;-75
2022/05/30 07:53:36;;;;;;;3.92;2.05;;;;;;;13.83;100.00;98228.22;4243191;33;20105;-77
2022/05/30 07:56:08;;;;;;;8.13;2.45;;;;;;;13.81;100.00;98231.22;4243497;33;20384;-77
2022/05/30 07:58:36;;;;;;;5.50;1.90;;;;;;;13.90;100.00;98233.31;4240193;33;20333;-75
2022/05/30 08:01:10;;;;;;;8.10;3.25;;;;;;;13.58;100.00;98181.47;4255046;33;20069;-76
2022/05/30 08:03:38;;;;;;;7.62;1.95;;;;;;;14.07;100.00;98230.91;4256123;33;20107;-77
2022/05/30 08:06:12;;;;;;;4.43;1.58;;;;;;;13.79;100.00;98233.44;4241736;33;20086;-77
2022/05/30 08:08:57;;;;;;;5.53;1.83;;;;;;;13.58;100.00;98194.22;4255270;33;20457;-77
2022/05/30 08:11:24;;;;;;;5.22;1.95;;;;;;;13.72;100.00;98237.56;4256199;33;20050;-77
2022/05/30 08:13:52;;;;;;;8.15;2.20;;;;;;;13.62;100.00;98243.91;4254625;33;20046;-78
2022/05/30 08:16:21;;;;;;;8.55;2.03;;;;;;;13.51;100.00;98237.00;4255290;33;20038;-77
2022/05/30 08:18:48;;;;;;;2.80;1.52;;;;;;;13.35;100.00;98212.06;4255054;33;20037;-76
2022/05/30 08:21:16;;;;;;;2.45;1.90;;;;;;;13.33;100.00;98247.47;4242570;33;20038;-76
2022/05/30 08:23:43;;;;;;;4.32;1.87;;;;;;;13.01;100.00;98246.16;4255599;33;20051;-76
2022/05/30 08:26:13;;;;;;;8.40;3.00;;;;;;;12.95;100.00;98247.28;4254783;33;20046;-76
2022/05/30 08:28:41;;;;;;;5.78;2.50;;;;;;;12.67;100.00;98241.59;4255451;33;20061;-76
2022/05/30 08:31:09;;;;;;;3.12;1.58;;;;;;;12.71;100.00;98248.00;4243093;33;20030;-76
2022/05/30 08:33:37;;;;;;;7.60;2.35;;;;;;;12.49;100.00;98213.38;4242252;33;20079;-77
2022/05/30 08:36:09;;;;;;;4.53;1.87;;;;;;;12.89;100.00;98248.41;4255444;33;20068;-78
2022/05/30 08:38:37;;;;;;;8.10;2.17;;;;;;;12.40;100.00;98247.47;4253041;33;20044;-77
2022/05/30 08:43:58;;;;;;;2.72;2.25;;;;;;;12.04;100.00;98195.59;4255502;33;20030;-76
2022/05/30 08:46:47;;;;;;;9.30;2.70;;;;;;;12.50;100.00;98247.37;4254002;33;20049;-77
2022/05/30 08:49:26;;;;;;;8.25;1.98;;;;;;;12.53;100.00;98252.22;4255528;33;20045;-78
2022/05/30 08:52:18;;;;;;;4.20;2.30;;;;;;;12.61;100.00;98264.31;4252805;33;20054;-78
2022/05/30 08:55:04;;;;;;;2.83;2.60;;;;;;;12.28;100.00;98261.28;4255690;33;20049;-78
2022/05/30 08:57:33;;;;;;;3.12;2.10;;;;;;;11.91;100.00;98272.53;4255470;33;20069;-78
2022/05/30 09:00:09;;;;;;;6.20;2.00;;;;;;;12.01;100.00;98266.31;4253808;33;20038;-78
2022/05/30 09:02:46;;;;;;;5.55;2.12;;;;;;;12.12;100.00;98265.16;4254201;33;20377;-76
2022/05/30 09:05:19;;;;;;;2.05;1.90;;;;;;;12.11;100.00;98261.69;4254276;33;20071;-77
2022/05/30 09:07:51;;;;;;;6.70;1.58;;;;;;;12.07;100.00;98255.22;4253469;33;20344;-78
2022/05/30 09:10:50;;;;;;;5.25;2.10;;;;;;;11.78;100.00;98269.34;4255747;33;20072;-77
2022/05/30 09:13:37;;;;;;;2.03;1.65;;;;;;;11.45;100.00;98243.84;4255185;33;20088;-78
2022/05/30 09:16:34;;;;;;;10.73;2.22;;;;;;;11.16;100.00;98239.06;4253675;33;20035;-76
2022/05/30 09:19:04;;;;;;;1.83;1.73;;;;;;;11.69;100.00;98232.44;4254029;33;20050;-79
2022/05/30 09:21:32;;;;;;;7.10;2.70;;;;;;;11.33;100.00;98254.13;4241857;33;20022;-80
2022/05/30 09:23:59;;;;;;;3.17;2.37;;;;;;;11.52;100.00;98282.12;4255190;33;20122;-76
2022/05/30 09:26:35;;;;;;;2.33;2.08;;;;;;;11.59;100.00;98288.00;4253617;33;20081;-76
2022/05/30 09:29:06;;;;;;;4.18;1.83;;;;;;;10.90;100.00;98228.34;4242174;33;20060;-79
2022/05/30 09:32:01;;;;;;;3.33;2.40;;;;;;;11.22;100.00;98251.47;4253216;33;20050;-79
2022/05/30 09:34:38;;;;;;;11.35;2.78;;;;;;;11.70;100.00;98293.37;4254242;33;20399;-77
2022/05/30 09:37:07;;;;;;;4.85;2.50;;;;;;;11.48;100.00;98259.47;4252712;33;20093;-80
2022/05/30 09:39:44;;;;;;;5.30;2.33;;;;;;;11.00;100.00;98253.66;4253860;33;20034;-76
2022/05/30 09:42:30;;;;;;;6.20;2.97;;;;;;;11.59;100.00;98298.78;4254688;33;20419;-76
2022/05/30 09:45:28;;;;;;;7.87;2.65;;;;;;;11.42;100.00;98309.09;4253680;33;20400;-77
2022/05/30 09:48:00;;;;;;;6.70;2.65;;;;;;;11.35;100.00;98313.97;4236522;33;20089;-75
2022/05/30 09:50:26;;;;;;;10.00;2.30;;;;;;;11.10;100.00;98272.47;4241958;33;20046;-79
2022/05/30 09:52:53;;;;;;;3.42;2.58;;;;;;;11.47;100.00;98317.16;4254627;33;20349;-76
2022/05/30 09:55:33;;;;;;;11.48;3.58;;;;;;;11.04;100.00;98319.38;4241991;33;20064;-78
2022/05/30 09:58:03;;;;;;;6.03;2.85;;;;;;;11.20;100.00;98323.69;4253964;33;20037;-76
2022/05/30 10:00:29;;;;;;;2.78;2.47;;;;;;;10.77;100.00;98282.75;4253442;33;20049;-76
2022/05/30 10:03:12;;;;;;;3.37;2.55;;;;;;;11.27;100.00;98329.59;4242221;33;20072;-77
2022/05/30 10:05:40;;;;;;;4.65;2.10;;;;;;;11.38;100.00;98332.28;4252282;33;20049;-79
2022/05/30 10:08:30;;;;;;;3.08;2.25;;;;;;;11.18;100.00;98341.97;4254339;33;20929;-76
2022/05/30 10:10:57;;;;;;;5.72;2.25;;;;;;;11.06;100.00;98349.56;4254811;33;20371;-77
2022/05/30 10:13:41;;;;;;;2.72;1.98;;;;;;;10.77;100.00;98344.69;4252042;33;20060;-77
2022/05/30 10:16:29;;;;;;;4.60;2.40;;;;;;;10.61;100.00;98305.34;4254552;33;20068;-76
2022/05/30 10:19:09;;;;;;;4.20;2.05;;;;;;;10.98;100.00;98358.19;4253640;33;20068;-76
2022/05/30 10:28:40;;;;;;;1.83;1.40;;;;;;;10.98;100.00;98374.34;4168984;34;20045;-76
2022/05/30 10:31:47;;;;;;;8.27;2.33;;;;;;;10.39;100.00;98325.25;4166805;34;20056;-78
2022/05/30 10:34:43;;;;;;;4.97;2.00;;;;;;;10.71;100.00;98370.78;4163455;34;20044;-77
2022/05/30 10:37:24;;;;;;;3.33;1.80;;;;;;;10.23;100.00;98343.19;4155190;34;20395;-75
2022/05/30 10:40:05;;;;;;;8.40;2.12;;;;;;;10.41;100.00;98376.91;4155957;34;20045;-77
2022/05/30 10:42:52;;;;;;;6.57;2.30;;;;;;;10.67;100.00;98390.44;4154563;34;20396;-75
2022/05/30 10:45:43;;;;;;;5.12;1.90;;;;;;;10.25;100.00;98367.12;4155484;34;20125;-76
2022/05/30 10:48:20;;;;;;;4.63;2.53;;;;;;;10.33;100.00;98399.75;4159485;34;20089;-76
2022/05/30 10:51:02;;;;;;;13.40;2.25;;;;;;;10.30;100.00;98408.31;4158349;34;20066;-77
2022/05/30 10:53:36;;;;;;;4.68;2.30;;;;;;;10.05;100.00;98375.91;4156907;34;20094;-77
2022/05/30 10:56:35;;;;;;;3.60;2.78;;;;;;;9.90;100.00;98371.28;4167681;34;20052;-77
2022/05/30 10:59:33;;;;;;;6.15;2.20;;;;;;;10.06;100.00;98418.69;4212353;33;20039;-77
2022/05/30 11:02:08;;;;;;;7.62;2.70;;;;;;;10.03;100.00;98429.97;4239593;33;20396;-77
2022/05/30 11:04:39;;;;;;;7.07;2.60;;;;;;;10.10;100.00;98419.81;4239869;33;20034;-76
2022/05/30 11:07:12;;;;;;;4.85;2.45;;;;;;;9.76;100.00;98387.88;4237869;33;20054;-77
2022/05/30 11:09:56;;;;;;;3.65;2.50;;;;;;;10.17;100.00;98431.13;4231364;33;20097;-76
2022/05/30 11:12:30;;;;;;;10.80;2.50;;;;;;;10.11;100.00;98432.16;4226770;34;20085;-76
2022/05/30 11:15:27;;;;;;;5.03;2.10;;;;;;;10.08;100.00;98424.63;4226450;34;20042;-76
2022/05/30 11:18:30;;;;;;;4.87;2.15;;;;;;;10.01;100.00;98432.13;4223758;34;20051;-76
2022/05/30 11:21:24;;;;;;;4.55;3.25;;;;;;;10.21;100.00;98422.53;4236217;33;20057;-76
2022/05/30 11:23:51;;;;;;;3.15;2.20;;;;;;;10.35;100.00;98426.41;4237660;33;20445;-76
2022/05/30 11:26:29;;;;;;;4.28;2.17;;;;;;;10.45;100.00;98429.13;4243033;33;20046;-76
2022/05/30 11:29:25;;;;;;;3.37;1.87;;;;;;;10.38;100.00;98430.44;4243926;33;20095;-76
2022/05/30 11:32:22;;;;;;;5.03;2.30;;;;;;;10.25;100.00;98384.09;4254662;33;20379;-77
2022/05/30 11:34:57;;;;;;;8.80;2.42;;;;;;;10.77;100.00;98428.16;4255768;33;20115;-75
2022/05/30 11:37:38;;;;;;;2.95;2.20;;;;;;;10.73;100.00;98394.75;4254453;33;20050;-76
2022/05/30 11:40:20;;;;;;;2.33;2.22;;;;;;;10.79;100.00;98399.06;4243052;33;20070;-75
2022/05/30 11:43:35;;;;;;;2.30;2.00;;;;;;;11.07;100.00;98434.66;4257113;33;20340;-75
2022/05/30 11:46:12;;;;;;;7.43;2.45;;;;;;;11.13;100.00;98430.91;4240110;33;20388;-75
2022/05/30 11:48:59;;;;;;;5.00;2.42;;;;;;;11.18;100.00;98433.59;4240528;33;20078;-75
2022/05/30 11:51:55;;;;;;;2.70;2.28;;;;;;;11.31;100.00;98434.16;4226065;33;20057;-74
2022/05/30 11:54:27;;;;;;;5.53;1.87;;;;;;;11.08;100.00;98385.09;4241504;33;20085;-74
2022/05/30 11:57:17;;;;;;;3.05;1.92;;;;;;;11.47;100.00;98434.97;4241753;33;20505;-74
2022/05/30 12:00:16;;;;;;;2.08;1.95;;;;;;;11.69;100.00;98442.78;4240842;33;20050;-74
2022/05/30 12:02:56;;;;;;;10.05;2.05;;;;;;;11.78;100.00;98425.78;4217175;33;20054;-73
2022/05/30 12:05:57;;;;;;;3.40;2.10;;;;;;;11.52;100.00;98433.09;4229047;33;20323;-74
2022/05/30 12:08:39;;;;;;;5.82;1.98;;;;;;;11.79;100.00;98437.34;4240226;33;20069;-75
2022/05/30 12:11:27;;;;;;;3.55;2.15;;;;;;;11.57;100.00;98408.03;4240845;33;20343;-73